createdAt,value
2018-09-25T00:01:54.097Z,5.20
2018-09-25T00:04:27.907Z,5.20
2018-09-25T00:07:01.613Z,5.10
2018-09-25T00:09:35.495Z,5.10
2018-09-25T00:12:09.294Z,5.10
2018-09-25T00:14:42.914Z,5.00
2018-09-25T00:17:16.663Z,5.00
2018-09-25T00:19:50.291Z,4.90
2018-09-25T00:22:24.052Z,4.90
2018-09-25T00:24:57.849Z,4.90
2018-09-25T00:27:31.612Z,4.90
2018-09-25T00:30:05.309Z,4.80
2018-09-25T00:32:38.987Z,4.80
2018-09-25T00:35:13.702Z,4.70
2018-09-25T00:37:47.539Z,4.70
2018-09-25T00:40:21.101Z,4.60
2018-09-25T00:42:54.988Z,4.60
2018-09-25T00:45:28.736Z,4.50
2018-09-25T00:48:02.476Z,4.60
2018-09-25T00:50:36.158Z,4.50
2018-09-25T00:53:09.958Z,4.50
2018-09-25T00:55:43.638Z,4.50
2018-09-25T00:58:17.499Z,4.40
2018-09-25T01:00:51.494Z,4.30
2018-09-25T01:03:25.113Z,4.30
2018-09-25T01:05:59.309Z,4.20
2018-09-25T01:08:33.273Z,4.20
2018-09-25T01:11:06.986Z,4.20
2018-09-25T01:13:41.164Z,4.30
2018-09-25T01:16:15.257Z,4.40
2018-09-25T01:18:48.919Z,4.40
2018-09-25T01:21:22.645Z,4.50
2018-09-25T01:23:56.547Z,4.40
2018-09-25T01:26:30.392Z,4.40
2018-09-25T01:29:04.302Z,4.40
2018-09-25T01:31:38.324Z,4.40
2018-09-25T01:34:12.267Z,4.40
2018-09-25T01:36:45.933Z,4.40
2018-09-25T01:39:20.313Z,4.30
2018-09-25T01:41:54.015Z,4.30
2018-09-25T01:44:27.723Z,4.30
2018-09-25T01:47:01.490Z,4.30
2018-09-25T01:49:35.474Z,4.30
2018-09-25T01:52:09.358Z,4.30
2018-09-25T01:54:43.237Z,4.30
2018-09-25T01:57:17.897Z,4.30
2018-09-25T01:59:51.472Z,4.40
2018-09-25T02:02:25.416Z,4.40
2018-09-25T02:04:59.233Z,4.30
2018-09-25T02:07:33.131Z,4.30
2018-09-25T02:10:06.811Z,4.20
2018-09-25T02:12:40.429Z,4.20
2018-09-25T02:15:14.086Z,4.10
2018-09-25T02:17:47.911Z,4.10
2018-09-25T02:20:21.589Z,4.10
2018-09-25T02:22:55.491Z,4.00
2018-09-25T02:25:29.320Z,4.10
2018-09-25T02:28:03.095Z,4.10
2018-09-25T02:30:37.097Z,4.10
2018-09-25T02:33:10.859Z,4.00
2018-09-25T02:35:44.555Z,4.00
2018-09-25T02:38:18.921Z,3.90
2018-09-25T02:40:52.631Z,3.90
2018-09-25T02:43:26.358Z,3.80
2018-09-25T02:46:00.159Z,3.80
2018-09-25T02:48:34.057Z,3.80
2018-09-25T02:51:07.887Z,3.70
2018-09-25T02:53:41.659Z,3.70
2018-09-25T02:56:15.560Z,3.70
2018-09-25T02:58:49.432Z,3.60
2018-09-25T03:01:23.392Z,3.60
2018-09-25T03:03:57.109Z,3.60
2018-09-25T03:06:31.073Z,3.50
2018-09-25T03:09:06.211Z,3.50
2018-09-25T03:11:40.868Z,3.50
2018-09-25T03:14:14.705Z,3.50
2018-09-25T03:16:48.576Z,3.50
2018-09-25T03:19:22.874Z,3.60
2018-09-25T03:21:56.730Z,3.60
2018-09-25T03:24:30.407Z,3.60
2018-09-25T03:27:04.116Z,3.60
2018-09-25T03:29:37.740Z,3.50
2018-09-25T03:32:11.633Z,3.50
2018-09-25T03:34:45.287Z,3.40
2018-09-25T03:37:18.954Z,3.40
2018-09-25T03:39:52.828Z,3.30
2018-09-25T03:42:26.598Z,3.30
2018-09-25T03:45:00.266Z,3.20
2018-09-25T03:47:37.600Z,3.30
2018-09-25T03:50:11.236Z,3.30
2018-09-25T03:52:45.153Z,3.30
2018-09-25T03:55:19.095Z,3.20
2018-09-25T03:57:52.804Z,3.20
2018-09-25T04:00:26.618Z,3.10
2018-09-25T04:03:00.404Z,3.10
2018-09-25T04:05:34.333Z,3.10
2018-09-25T04:08:08.203Z,3.00
2018-09-25T04:10:42.126Z,3.00
2018-09-25T04:13:15.767Z,3.00
2018-09-25T04:15:49.445Z,2.90
2018-09-25T04:18:23.309Z,3.10
2018-09-25T04:20:57.146Z,3.20
2018-09-25T04:23:30.801Z,3.10
2018-09-25T04:26:04.468Z,3.10
2018-09-25T04:28:38.202Z,3.00
2018-09-25T04:31:11.987Z,3.00
2018-09-25T04:33:45.843Z,2.90
2018-09-25T04:36:19.491Z,2.90
2018-09-25T04:38:53.293Z,2.80
2018-09-25T04:41:27.184Z,2.80
2018-09-25T04:44:00.953Z,2.80
2018-09-25T04:46:34.722Z,2.70
2018-09-25T04:49:08.367Z,2.70
2018-09-25T04:51:42.087Z,2.70
2018-09-25T04:54:15.774Z,2.70
2018-09-25T04:56:49.660Z,2.60
2018-09-25T04:59:23.521Z,2.60
2018-09-25T05:01:57.620Z,2.60
2018-09-25T05:04:31.665Z,2.60
2018-09-25T05:07:05.456Z,2.60
2018-09-25T05:09:39.493Z,2.50
2018-09-25T05:12:13.309Z,2.50
2018-09-25T05:14:47.616Z,2.50
2018-09-25T05:17:21.336Z,2.40
2018-09-25T05:19:54.971Z,2.40
2018-09-25T05:22:29.698Z,2.40
2018-09-25T05:25:03.925Z,2.40
2018-09-25T05:27:37.962Z,2.50
2018-09-25T05:30:11.801Z,2.50
2018-09-25T05:32:45.433Z,2.60
2018-09-25T05:35:21.366Z,2.60
2018-09-25T05:37:55.655Z,2.60
2018-09-25T05:40:29.471Z,2.70
2018-09-25T05:43:03.099Z,2.80
2018-09-25T05:45:36.848Z,2.80
2018-09-25T05:48:13.566Z,2.80
2018-09-25T05:50:47.415Z,2.80
2018-09-25T05:53:21.284Z,2.90
2018-09-25T05:55:54.910Z,2.90
2018-09-25T05:58:28.544Z,2.90
2018-09-25T06:01:02.368Z,2.90
2018-09-25T06:03:36.223Z,3.00
2018-09-25T06:06:09.922Z,3.00
2018-09-25T06:08:43.862Z,3.20
2018-09-25T06:11:17.631Z,3.60
2018-09-25T06:13:51.405Z,3.90
2018-09-25T06:16:25.213Z,4.30
2018-09-25T06:18:58.837Z,4.80
2018-09-25T06:21:32.467Z,5.20
2018-09-25T06:24:06.075Z,5.60
2018-09-25T06:26:39.855Z,5.80
2018-09-25T06:29:13.785Z,5.90
2018-09-25T06:31:47.471Z,5.90
2018-09-25T06:34:21.156Z,6.00
2018-09-25T06:36:54.865Z,6.00
2018-09-25T06:39:28.512Z,5.90
2018-09-25T06:42:02.382Z,5.90
2018-09-25T06:44:36.533Z,5.80
2018-09-25T06:47:11.124Z,5.80
2018-09-25T06:49:44.833Z,5.80
2018-09-25T06:52:18.541Z,5.80
2018-09-25T06:54:52.390Z,5.90
2018-09-25T06:57:27.510Z,6.00
2018-09-25T07:00:01.151Z,6.10
2018-09-25T07:02:34.824Z,6.20
2018-09-25T07:05:09.427Z,6.30
2018-09-25T07:07:43.104Z,6.50
2018-09-25T07:10:16.844Z,6.60
2018-09-25T07:12:50.436Z,6.70
2018-09-25T07:15:24.209Z,6.90
2018-09-25T07:17:57.776Z,7.10
2018-09-25T07:20:31.394Z,7.30
2018-09-25T07:23:05.133Z,7.60
2018-09-25T07:25:38.904Z,7.80
2018-09-25T07:28:12.640Z,8.10
2018-09-25T07:30:46.140Z,8.20
2018-09-25T07:33:20.255Z,8.40
2018-09-25T07:35:53.965Z,8.50
2018-09-25T07:38:27.821Z,8.60
2018-09-25T07:41:02.510Z,8.70
2018-09-25T07:43:36.448Z,8.80
2018-09-25T07:46:10.051Z,8.80
2018-09-25T07:48:43.671Z,8.90
2018-09-25T07:51:17.255Z,9.00
2018-09-25T07:53:50.890Z,9.10
2018-09-25T07:56:24.862Z,9.10
2018-09-25T07:58:58.432Z,9.40
2018-09-25T08:01:32.049Z,9.90
2018-09-25T08:04:05.638Z,10.50
2018-09-25T08:06:39.327Z,11.00
2018-09-25T08:09:13.867Z,11.10
2018-09-25T08:11:47.795Z,10.90
2018-09-25T08:14:21.441Z,10.80
2018-09-25T08:16:55.259Z,10.50
2018-09-25T08:19:28.944Z,10.50
2018-09-25T08:22:02.760Z,10.50
2018-09-25T08:24:36.282Z,10.60
2018-09-25T08:27:09.994Z,10.60
2018-09-25T08:29:43.856Z,10.50
2018-09-25T08:32:17.458Z,10.40
2018-09-25T08:34:51.291Z,10.50
2018-09-25T08:37:25.118Z,10.60
2018-09-25T08:39:58.988Z,10.70
2018-09-25T08:42:32.606Z,10.90
2018-09-25T08:45:06.141Z,11.00
2018-09-25T08:47:39.809Z,11.00
2018-09-25T08:50:13.482Z,11.00
2018-09-25T08:52:47.894Z,11.10
2018-09-25T08:55:22.389Z,11.30
2018-09-25T08:57:56.222Z,11.80
2018-09-25T09:00:29.869Z,12.30
2018-09-25T09:03:03.467Z,12.80
2018-09-25T09:05:37.122Z,13.40
2018-09-25T09:08:11.003Z,13.80
2018-09-25T09:10:44.700Z,14.20
2018-09-25T09:13:18.421Z,14.60
2018-09-25T09:15:52.090Z,15.10
2018-09-25T09:18:27.956Z,15.40
2018-09-25T09:21:01.782Z,15.00
2018-09-25T09:23:35.585Z,15.60
2018-09-25T09:26:09.363Z,15.80
2018-09-25T09:28:43.147Z,15.70
2018-09-25T09:31:16.907Z,15.60
2018-09-25T09:33:50.712Z,15.20
2018-09-25T09:36:24.459Z,15.80
2018-09-25T09:38:58.111Z,15.80
2018-09-25T09:41:32.022Z,15.90
2018-09-25T09:44:05.485Z,15.60
2018-09-25T09:46:39.236Z,15.60
2018-09-25T09:49:13.092Z,16.20
2018-09-25T09:51:46.995Z,16.50
2018-09-25T09:54:20.861Z,16.50
2018-09-25T09:56:54.623Z,16.40
2018-09-25T09:59:28.530Z,16.40
2018-09-25T10:02:02.170Z,16.90
2018-09-25T10:04:35.964Z,17.20
2018-09-25T10:07:09.596Z,17.30
2018-09-25T10:09:43.353Z,17.60
2018-09-25T10:12:17.241Z,17.80
2018-09-25T10:14:50.825Z,18.10
2018-09-25T10:17:24.478Z,17.90
2018-09-25T10:19:58.301Z,18.30
2018-09-25T10:22:31.926Z,18.30
2018-09-25T10:25:06.478Z,18.50
2018-09-25T10:27:40.276Z,18.80
2018-09-25T10:30:13.919Z,18.40
2018-09-25T10:32:47.653Z,18.60
2018-09-25T10:35:21.338Z,19.10
2018-09-25T10:37:55.005Z,18.30
2018-09-25T10:40:28.876Z,18.30
2018-09-25T10:43:02.733Z,17.90
2018-09-25T10:45:36.349Z,17.70
2018-09-25T10:48:10.069Z,18.10
2018-09-25T10:50:43.823Z,18.30
2018-09-25T10:53:17.539Z,18.60
2018-09-25T10:55:54.828Z,18.50
2018-09-25T10:58:28.306Z,18.90
2018-09-25T11:01:01.912Z,19.00
2018-09-25T11:03:35.533Z,19.40
2018-09-25T11:06:09.144Z,19.80
2018-09-25T11:08:42.953Z,19.80
2018-09-25T11:11:16.565Z,19.90
2018-09-25T11:13:50.392Z,19.90
2018-09-25T11:16:24.249Z,19.70
2018-09-25T11:18:57.975Z,18.90
2018-09-25T11:21:31.786Z,18.80
2018-09-25T11:24:05.405Z,18.60
2018-09-25T11:26:39.011Z,18.90
2018-09-25T11:29:12.606Z,19.20
2018-09-25T11:31:46.286Z,19.10
2018-09-25T11:34:19.956Z,19.00
2018-09-25T11:36:53.551Z,19.10
2018-09-25T11:39:27.287Z,19.10
2018-09-25T11:42:00.946Z,19.50
2018-09-25T11:44:34.723Z,19.40
2018-09-25T11:47:08.405Z,19.80
2018-09-25T11:49:42.232Z,20.00
2018-09-25T11:52:15.964Z,19.40
2018-09-25T11:54:49.681Z,18.90
2018-09-25T11:57:23.297Z,18.60
2018-09-25T11:59:56.912Z,18.40
2018-09-25T12:02:30.573Z,18.50
2018-09-25T12:05:04.380Z,18.50
2018-09-25T12:07:38.272Z,19.00
2018-09-25T12:10:12.277Z,19.70
2018-09-25T12:12:46.101Z,20.00
2018-09-25T12:15:19.947Z,19.70
2018-09-25T12:17:53.754Z,19.60
2018-09-25T12:20:27.566Z,19.80
2018-09-25T12:23:01.485Z,19.80
2018-09-25T12:25:35.173Z,19.60
2018-09-25T12:28:08.981Z,19.70
2018-09-25T12:30:42.668Z,19.50
2018-09-25T12:33:16.297Z,19.70
2018-09-25T12:35:49.910Z,19.70
2018-09-25T12:38:24.738Z,19.50
2018-09-25T12:40:58.491Z,18.80
2018-09-25T12:43:32.281Z,18.50
2018-09-25T12:46:06.040Z,18.80
2018-09-25T12:48:39.983Z,18.70
2018-09-25T12:51:13.846Z,18.90
2018-09-25T12:53:47.709Z,18.40
2018-09-25T12:56:21.481Z,18.20
2018-09-25T12:58:55.929Z,17.70
2018-09-25T13:01:29.810Z,17.80
2018-09-25T13:04:03.822Z,18.70
2018-09-25T13:06:37.425Z,19.20
2018-09-25T13:09:13.839Z,19.20
2018-09-25T13:11:48.800Z,19.30
2018-09-25T13:14:22.685Z,19.40
2018-09-25T13:16:56.364Z,19.30
2018-09-25T13:19:30.262Z,19.00
2018-09-25T13:22:04.152Z,18.60
2018-09-25T13:24:38.093Z,18.20
2018-09-25T13:27:11.778Z,17.60
2018-09-25T13:29:45.461Z,17.50
2018-09-25T13:32:19.164Z,17.40
2018-09-25T13:34:52.868Z,16.90
2018-09-25T13:37:26.665Z,16.80
2018-09-25T13:40:00.377Z,16.80
2018-09-25T13:42:34.287Z,16.90
2018-09-25T13:45:08.026Z,17.00
2018-09-25T13:47:41.816Z,17.20
2018-09-25T13:50:15.639Z,17.70
2018-09-25T13:52:49.336Z,18.50
2018-09-25T13:55:22.982Z,19.30
2018-09-25T13:57:56.745Z,20.60
2018-09-25T14:00:30.537Z,21.40
2018-09-25T14:03:04.301Z,22.40
2018-09-25T14:05:38.090Z,23.00
2018-09-25T14:08:11.854Z,23.10
2018-09-25T14:10:45.655Z,22.80
2018-09-25T14:13:19.260Z,22.30
2018-09-25T14:15:52.957Z,22.10
2018-09-25T14:18:26.899Z,22.40
2018-09-25T14:21:00.595Z,22.60
2018-09-25T14:23:34.294Z,22.00
2018-09-25T14:26:07.879Z,21.60
2018-09-25T14:28:41.602Z,21.50
2018-09-25T14:31:15.295Z,21.70
2018-09-25T14:33:48.958Z,22.00
2018-09-25T14:36:23.904Z,22.50
2018-09-25T14:38:58.081Z,23.00
2018-09-25T14:41:34.019Z,22.80
2018-09-25T14:44:07.960Z,23.10
2018-09-25T14:46:41.726Z,23.60
2018-09-25T14:49:15.728Z,23.80
2018-09-25T14:51:49.376Z,24.10
2018-09-25T14:54:23.127Z,23.70
2018-09-25T14:56:56.990Z,23.10
2018-09-25T14:59:30.816Z,23.70
2018-09-25T15:02:04.480Z,23.70
2018-09-25T15:04:38.897Z,23.50
2018-09-25T15:07:12.695Z,23.60
2018-09-25T15:09:46.327Z,23.50
2018-09-25T15:12:20.134Z,23.20
2018-09-25T15:14:53.828Z,23.50
2018-09-25T15:17:27.768Z,23.90
2018-09-25T15:20:01.307Z,24.20
2018-09-25T15:22:35.235Z,24.20
2018-09-25T15:25:08.988Z,24.20
2018-09-25T15:27:42.838Z,23.50
2018-09-25T15:30:16.394Z,23.20
2018-09-25T15:32:50.064Z,22.90
2018-09-25T15:35:23.864Z,22.20
2018-09-25T15:37:57.350Z,21.30
2018-09-25T15:40:31.080Z,21.30
2018-09-25T15:43:04.784Z,21.30
2018-09-25T15:45:38.493Z,21.10
2018-09-25T15:48:12.230Z,21.10
2018-09-25T15:50:45.863Z,21.10
2018-09-25T15:53:19.698Z,21.00
2018-09-25T15:55:53.406Z,20.50
2018-09-25T15:58:27.044Z,20.30
2018-09-25T16:01:00.704Z,19.80
2018-09-25T16:03:34.449Z,19.70
2018-09-25T16:06:08.300Z,19.20
2018-09-25T16:08:42.088Z,19.30
2018-09-25T16:11:16.264Z,19.30
2018-09-25T16:13:50.105Z,19.40
2018-09-25T16:16:24.072Z,19.40
2018-09-25T16:18:57.673Z,19.60
2018-09-25T16:21:32.051Z,19.20
2018-09-25T16:24:05.693Z,18.50
2018-09-25T16:26:39.295Z,18.10
2018-09-25T16:29:12.866Z,17.70
2018-09-25T16:31:46.502Z,17.60
2018-09-25T16:34:20.250Z,17.70
2018-09-25T16:36:53.921Z,17.70
2018-09-25T16:39:27.773Z,17.50
2018-09-25T16:42:01.486Z,17.10
2018-09-25T16:44:35.184Z,16.80
2018-09-25T16:47:09.082Z,16.50
2018-09-25T16:49:43.193Z,16.40
2018-09-25T16:52:16.936Z,16.30
2018-09-25T16:54:51.959Z,16.20
2018-09-25T16:57:25.749Z,16.00
2018-09-25T16:59:59.426Z,15.80
2018-09-25T17:02:33.851Z,15.60
2018-09-25T17:05:07.470Z,15.40
2018-09-25T17:07:42.099Z,15.10
2018-09-25T17:10:15.850Z,14.90
2018-09-25T17:12:49.660Z,14.70
2018-09-25T17:15:25.163Z,14.40
2018-09-25T17:17:58.940Z,14.30
2018-09-25T17:20:32.716Z,14.00
2018-09-25T17:23:06.806Z,13.80
2018-09-25T17:25:40.380Z,13.60
2018-09-25T17:28:13.951Z,13.30
2018-09-25T17:30:47.733Z,13.20
2018-09-25T17:33:21.626Z,13.00
2018-09-25T17:35:55.373Z,12.90
2018-09-25T17:38:29.058Z,12.80
2018-09-25T17:41:02.929Z,12.60
2018-09-25T17:43:36.772Z,12.50
2018-09-25T17:46:10.549Z,12.30
2018-09-25T17:48:44.974Z,12.20
2018-09-25T17:51:18.809Z,12.10
2018-09-25T17:53:52.999Z,12.00
2018-09-25T17:56:33.398Z,11.70
2018-09-25T17:59:07.070Z,11.40
2018-09-25T18:01:40.791Z,11.10
2018-09-25T18:04:14.409Z,11.00
2018-09-25T18:06:48.045Z,10.90
2018-09-25T18:09:21.664Z,10.80
2018-09-25T18:11:55.587Z,10.70
2018-09-25T18:14:29.368Z,10.60
2018-09-25T18:17:03.130Z,10.60
2018-09-25T18:19:37.991Z,10.50
2018-09-25T18:22:12.137Z,10.40
2018-09-25T18:24:46.038Z,10.40
2018-09-25T18:27:19.708Z,10.30
2018-09-25T18:29:53.460Z,10.20
2018-09-25T18:32:27.373Z,10.10
2018-09-25T18:35:01.267Z,10.00
2018-09-25T18:37:35.115Z,9.90
2018-09-25T18:40:08.698Z,9.90
2018-09-25T18:42:42.698Z,9.80
2018-09-25T18:45:16.426Z,9.80
2018-09-25T18:47:50.277Z,9.70
2018-09-25T18:50:23.972Z,9.60
2018-09-25T18:52:57.731Z,9.50
2018-09-25T18:55:31.384Z,9.40
2018-09-25T18:58:05.032Z,9.30
2018-09-25T19:00:39.216Z,9.30
2018-09-25T19:03:13.983Z,9.20
2018-09-25T19:05:53.891Z,9.10
2018-09-25T19:08:27.712Z,9.10
2018-09-25T19:11:01.876Z,9.00
2018-09-25T19:13:39.284Z,9.00
2018-09-25T19:16:12.904Z,8.90
2018-09-25T19:18:46.681Z,8.90
2018-09-25T19:21:20.529Z,8.80
2018-09-25T19:23:54.274Z,8.70
2018-09-25T19:26:27.899Z,8.60
2018-09-25T19:29:01.498Z,8.50
2018-09-25T19:31:35.026Z,8.40
2018-09-25T19:34:09.128Z,8.40
2018-09-25T19:36:42.722Z,8.20
2018-09-25T19:39:16.637Z,8.20
2018-09-25T19:41:50.455Z,8.10
2018-09-25T19:44:24.421Z,8.10
2018-09-25T19:46:58.189Z,8.00
2018-09-25T19:49:32.232Z,8.00
2018-09-25T19:52:06.901Z,7.90
2018-09-25T19:54:40.793Z,7.80
2018-09-25T19:57:14.705Z,7.80
2018-09-25T19:59:49.711Z,7.70
2018-09-25T20:02:23.488Z,7.60
2018-09-25T20:04:57.404Z,7.60
2018-09-25T20:07:31.265Z,7.50
2018-09-25T20:10:05.170Z,7.50
2018-09-25T20:12:39.200Z,7.40
2018-09-25T20:15:13.090Z,7.40
2018-09-25T20:17:46.873Z,7.30
2018-09-25T20:20:20.752Z,7.30
2018-09-25T20:22:55.759Z,7.30
2018-09-25T20:25:29.636Z,7.20
2018-09-25T20:28:03.367Z,7.10
2018-09-25T20:30:37.160Z,7.10
2018-09-25T20:33:11.511Z,7.00
2018-09-25T20:35:45.245Z,7.00
2018-09-25T20:38:18.911Z,6.90
2018-09-25T20:40:53.003Z,6.90
2018-09-25T20:43:26.640Z,6.80
2018-09-25T20:46:00.455Z,6.80
2018-09-25T20:48:41.823Z,6.70
2018-09-25T20:51:15.694Z,6.70
2018-09-25T20:53:49.418Z,6.60
2018-09-25T20:56:23.120Z,6.60
2018-09-25T20:58:56.896Z,6.60
2018-09-25T21:01:30.677Z,6.50
2018-09-25T21:04:05.309Z,6.50
2018-09-25T21:06:39.077Z,6.40
2018-09-25T21:09:14.136Z,6.40
2018-09-25T21:11:48.068Z,6.30
2018-09-25T21:14:21.885Z,6.30
2018-09-25T21:16:55.952Z,6.30
2018-09-25T21:19:29.822Z,6.20
2018-09-25T21:22:04.922Z,6.20
2018-09-25T21:24:38.563Z,6.20
2018-09-25T21:27:13.104Z,6.10
2018-09-25T21:29:46.822Z,6.00
2018-09-25T21:32:20.408Z,6.00
2018-09-25T21:34:54.132Z,5.90
2018-09-25T21:37:28.000Z,5.90
2018-09-25T21:40:01.695Z,5.90
2018-09-25T21:42:35.455Z,5.80
2018-09-25T21:45:09.346Z,5.80
2018-09-25T21:47:42.971Z,5.80
2018-09-25T21:50:16.773Z,5.80
2018-09-25T21:52:50.569Z,5.80
2018-09-25T21:55:24.422Z,5.70
2018-09-25T21:57:58.114Z,5.70
2018-09-25T22:00:31.929Z,5.70
2018-09-25T22:03:05.600Z,5.60
2018-09-25T22:05:39.264Z,5.60
2018-09-25T22:08:12.981Z,5.60
2018-09-25T22:10:46.825Z,5.60
2018-09-25T22:13:20.678Z,5.60
2018-09-25T22:15:54.437Z,5.50
2018-09-25T22:18:28.259Z,5.50
2018-09-25T22:21:01.876Z,5.40
2018-09-25T22:23:35.664Z,5.40
2018-09-25T22:26:09.602Z,5.40
2018-09-25T22:28:43.383Z,5.40
2018-09-25T22:31:17.017Z,5.40
2018-09-25T22:33:50.666Z,5.40
2018-09-25T22:36:24.367Z,5.40
2018-09-25T22:38:58.195Z,5.30
2018-09-25T22:41:32.046Z,5.30
2018-09-25T22:44:05.931Z,5.30
2018-09-25T22:46:39.719Z,5.30
2018-09-25T22:49:13.688Z,5.30
2018-09-25T22:51:47.493Z,5.20
2018-09-25T22:54:21.155Z,5.20
2018-09-25T22:56:54.846Z,5.20
2018-09-25T22:59:28.884Z,5.20
2018-09-25T23:02:02.650Z,5.10
2018-09-25T23:04:36.518Z,5.10
2018-09-25T23:07:10.914Z,5.10
2018-09-25T23:09:44.629Z,5.00
2018-09-25T23:12:18.346Z,5.00
2018-09-25T23:14:52.165Z,5.00
2018-09-25T23:17:25.799Z,5.00
2018-09-25T23:19:59.430Z,5.00
2018-09-25T23:22:33.376Z,4.90
2018-09-25T23:25:07.164Z,4.90
2018-09-25T23:27:42.093Z,4.90
2018-09-25T23:30:16.992Z,4.90
2018-09-25T23:32:50.618Z,4.90
2018-09-25T23:35:24.161Z,4.80
2018-09-25T23:37:58.636Z,4.80
2018-09-25T23:40:32.106Z,4.80
2018-09-25T23:43:06.653Z,4.80
2018-09-25T23:45:46.437Z,4.80
2018-09-25T23:48:20.443Z,4.70
2018-09-25T23:50:55.779Z,4.70
2018-09-25T23:53:32.284Z,4.70
2018-09-25T23:56:06.991Z,4.70
2018-09-25T23:58:40.900Z,4.70
